Terminal Aerodrome Forecast
Issued by NWS

Home | Current Version | Previous Version | Text Only | Print | Product List | Glossary On
Versions: 1 2 3 4 5 6 7 8 9 10 11 12 13 14
000
FTUS43 KBIS 240100 AAA
TAFMOT
TAF AMD
KMOT 240103Z 2401/2424 32020G29KT 6SM -SN BKN025
     FM240500 33016G24KT P6SM SCT210
     FM242300 28010KT P6SM BKN070=

USA.gov is the U.S. government's official web portal to all federal, state and local government web resources and services.